Terminal Aerodrome Forecast
Issued by NWS

Home | Current Version | Previous Version | Text Only | Print | Product List | Glossary Off
Versions: 1 2 3 4 5 6 7 8 9 10 11 12 13 14 15 16 17 18 19 20

963
FTUS43 KBIS 051139
TAFJMS
TAF
KJMS 051139Z 0512/0612 11006KT P6SM BKN200
     FM051900 03009KT P6SM VCSH BKN015
     FM052000 36009KT 1/2SM SN OVC015
     FM060100 29013G21KT 1SM BLSN VCSH OVC008
     FM060900 30023G34KT 2SM BLSN OVC010=

USA.gov is the U.S. government's official web portal to all federal, state and local government web resources and services.